createdAt,value
2022-10-21T00:00:30.959Z,99768.34
2022-10-21T00:03:00.090Z,99780.72
2022-10-21T00:05:27.906Z,99782.59
2022-10-21T00:07:55.866Z,99790.63
2022-10-21T00:10:23.688Z,99796.16
2022-10-21T00:12:51.664Z,99799.06
2022-10-21T00:15:19.467Z,99811.44
2022-10-21T00:17:47.231Z,99815.81
2022-10-21T00:20:17.271Z,99811.44
2022-10-21T00:22:45.418Z,99812.44
2022-10-21T00:25:13.120Z,99809.94
2022-10-21T00:27:40.987Z,99804.81
2022-10-21T00:30:10.248Z,99806.56
2022-10-21T00:32:38.238Z,99802.19
2022-10-21T00:35:07.047Z,99801.16
2022-10-21T00:37:36.601Z,99795.75
2022-10-21T00:40:05.883Z,99790.50
2022-10-21T00:42:40.765Z,99782.25
2022-10-21T00:45:19.045Z,99776.09
2022-10-21T00:47:50.524Z,99768.78
2022-10-21T00:50:26.312Z,99764.91
2022-10-21T00:52:57.168Z,99746.41
2022-10-21T00:55:27.396Z,99769.41
2022-10-21T00:57:56.537Z,99745.88
2022-10-21T01:00:24.293Z,99728.28
2022-10-21T01:02:52.277Z,99712.91
2022-10-21T01:05:20.787Z,99684.97
2022-10-21T01:07:49.060Z,99654.56
2022-10-21T01:10:19.357Z,99672.13
2022-10-21T01:12:59.690Z,99721.91
2022-10-21T01:15:35.562Z,99726.41
2022-10-21T01:18:09.405Z,99703.94
2022-10-21T01:21:02.270Z,99710.19
2022-10-21T01:23:58.178Z,99702.88
2022-10-21T01:27:10.495Z,99697.22
2022-10-21T01:29:58.525Z,99724.00
2022-10-21T01:32:35.823Z,99722.72
2022-10-21T01:35:11.768Z,99706.22
2022-10-21T01:37:54.294Z,99693.34
2022-10-21T01:40:27.920Z,99682.03
2022-10-21T01:42:58.984Z,99691.13
2022-10-21T01:45:32.321Z,99689.56
2022-10-21T01:48:06.536Z,99686.22
2022-10-21T01:50:39.615Z,99674.19
2022-10-21T01:53:11.092Z,99682.97
2022-10-21T01:55:40.731Z,99681.38
2022-10-21T01:58:11.342Z,99677.28
2022-10-21T02:00:42.201Z,99678.03
2022-10-21T02:03:17.950Z,99679.19
2022-10-21T02:05:45.676Z,99677.81
2022-10-21T02:08:13.634Z,99681.56
2022-10-21T02:10:46.458Z,99677.38
2022-10-21T02:13:18.516Z,99668.91
2022-10-21T02:15:46.803Z,99664.69
2022-10-21T02:18:22.767Z,99659.69
2022-10-21T02:20:54.228Z,99642.34
2022-10-21T02:23:27.600Z,99635.81
2022-10-21T02:25:55.277Z,99634.19
2022-10-21T02:28:23.232Z,99632.88
2022-10-21T02:31:01.723Z,99643.97
2022-10-21T02:33:41.266Z,99650.09
2022-10-21T02:36:15.266Z,99645.59
2022-10-21T02:38:48.872Z,99644.47
2022-10-21T02:41:21.920Z,99641.84
2022-10-21T02:43:54.450Z,99649.19
2022-10-21T02:46:22.579Z,99644.69
2022-10-21T02:48:51.635Z,99638.59
2022-10-21T02:51:19.273Z,99637.69
2022-10-21T02:53:46.921Z,99626.38
2022-10-21T02:56:14.565Z,99620.03
2022-10-21T02:58:42.183Z,99614.59
2022-10-21T03:01:09.831Z,99604.91
2022-10-21T03:03:37.586Z,99601.66
2022-10-21T03:06:06.841Z,99589.44
2022-10-21T03:08:34.528Z,99579.06
2022-10-21T03:11:02.174Z,99582.75
2022-10-21T03:13:29.788Z,99594.19
2022-10-21T03:15:57.584Z,99597.66
2022-10-21T03:18:25.327Z,99599.53
2022-10-21T03:20:53.246Z,99598.72
2022-10-21T03:23:22.515Z,99594.19
2022-10-21T03:25:50.131Z,99587.75
2022-10-21T03:28:20.999Z,99594.53
2022-10-21T03:30:48.658Z,99601.34
2022-10-21T03:33:16.263Z,99598.41
2022-10-21T03:35:43.960Z,99592.16
2022-10-21T03:38:11.608Z,99597.94
2022-10-21T03:40:40.573Z,99589.13
2022-10-21T03:43:08.169Z,99585.38
2022-10-21T03:45:35.944Z,99589.56
2022-10-21T03:48:03.573Z,99588.84
2022-10-21T03:50:31.199Z,99582.97
2022-10-21T03:52:59.241Z,99585.59
2022-10-21T03:55:27.453Z,99590.69
2022-10-21T03:57:56.434Z,99588.84
2022-10-21T04:00:27.144Z,99579.00
2022-10-21T04:02:57.245Z,99574.63
2022-10-21T04:05:24.997Z,99566.69
2022-10-21T04:07:53.221Z,99563.72
2022-10-21T04:10:21.646Z,99566.25
2022-10-21T04:12:49.434Z,99556.84
2022-10-21T04:15:19.067Z,99554.13
2022-10-21T04:17:47.422Z,99548.25
2022-10-21T04:20:15.324Z,99548.69
2022-10-21T04:22:42.998Z,99549.72
2022-10-21T04:25:11.225Z,99549.84
2022-10-21T04:27:39.198Z,99547.00
2022-10-21T04:30:08.321Z,99545.13
2022-10-21T04:32:37.620Z,99541.78
2022-10-21T04:35:06.270Z,99535.50
2022-10-21T04:37:33.983Z,99540.84
2022-10-21T04:40:01.670Z,99537.50
2022-10-21T04:42:29.426Z,99536.56
2022-10-21T04:44:57.223Z,99527.66
2022-10-21T04:47:25.035Z,99525.97
2022-10-21T04:49:54.001Z,99513.66
2022-10-21T04:52:21.659Z,99508.50
2022-10-21T04:54:49.263Z,99515.66
2022-10-21T04:57:16.893Z,99519.28
2022-10-21T04:59:44.515Z,99520.13
2022-10-21T05:02:12.293Z,99517.50
2022-10-21T05:04:40.102Z,99515.75
2022-10-21T05:07:09.663Z,99516.66
2022-10-21T05:09:37.517Z,99516.56
2022-10-21T05:12:05.407Z,99508.84
2022-10-21T05:14:33.106Z,99502.66
2022-10-21T05:17:00.809Z,99507.06
2022-10-21T05:19:31.263Z,99508.03
2022-10-21T05:21:59.239Z,99510.63
2022-10-21T05:24:28.355Z,99512.19
2022-10-21T05:26:56.130Z,99496.50
2022-10-21T05:29:23.859Z,99504.13
2022-10-21T05:31:51.626Z,99496.28
2022-10-21T05:34:19.406Z,99503.28
2022-10-21T05:36:48.599Z,99498.19
2022-10-21T05:39:16.790Z,99499.13
2022-10-21T05:41:47.971Z,99502.56
2022-10-21T05:44:16.115Z,99501.63
2022-10-21T05:46:43.768Z,99497.34
2022-10-21T05:49:12.961Z,99499.03
2022-10-21T05:51:40.797Z,99499.84
2022-10-21T05:54:08.601Z,99508.84
2022-10-21T05:56:36.463Z,99505.41
2022-10-21T05:59:07.901Z,99495.13
2022-10-21T06:01:37.930Z,99490.75
2022-10-21T06:04:05.995Z,99486.38
2022-10-21T06:06:33.923Z,99487.09
2022-10-21T06:09:01.943Z,99486.28
2022-10-21T06:11:29.691Z,99482.06
2022-10-21T06:13:57.380Z,99490.88
2022-10-21T06:16:26.545Z,99496.19
2022-10-21T06:18:54.463Z,99487.19
2022-10-21T06:21:22.911Z,99499.53
2022-10-21T06:23:53.853Z,99496.28
2022-10-21T06:26:21.835Z,99496.19
2022-10-21T06:28:49.506Z,99504.03
2022-10-21T06:31:20.529Z,99501.44
2022-10-21T06:33:49.575Z,99502.25
2022-10-21T06:36:17.333Z,99513.56
2022-10-21T06:38:45.224Z,99509.97
2022-10-21T06:41:15.295Z,99508.53
2022-10-21T06:43:45.172Z,99512.81
2022-10-21T06:46:15.532Z,99529.13
2022-10-21T06:48:43.330Z,99526.50
2022-10-21T06:51:15.871Z,99542.19
2022-10-21T06:53:44.199Z,99551.00
2022-10-21T06:56:14.800Z,99549.19
2022-10-21T06:58:43.291Z,99546.59
2022-10-21T07:01:21.675Z,99543.56
2022-10-21T07:04:00.450Z,99551.81
2022-10-21T07:06:30.877Z,99551.00
2022-10-21T07:08:59.714Z,99554.97
2022-10-21T07:11:28.333Z,99553.28
2022-10-21T07:13:56.644Z,99556.72
2022-10-21T07:16:26.564Z,99554.13
2022-10-21T07:18:55.094Z,99554.88
2022-10-21T07:21:24.912Z,99551.31
2022-10-21T07:23:56.684Z,99545.97
2022-10-21T07:26:28.773Z,99551.94
2022-10-21T07:28:58.714Z,99550.16
2022-10-21T07:31:26.757Z,99543.03
2022-10-21T07:33:55.283Z,99545.34
2022-10-21T07:36:25.433Z,99545.44
2022-10-21T07:38:56.849Z,99548.88
2022-10-21T07:41:27.355Z,99537.28
2022-10-21T07:43:55.843Z,99541.34
2022-10-21T07:46:24.032Z,99538.63
2022-10-21T07:48:52.230Z,99546.16
2022-10-21T07:51:26.870Z,99537.34
2022-10-21T07:54:01.383Z,99544.38
2022-10-21T07:56:31.077Z,99534.94
2022-10-21T07:58:59.498Z,99538.94
2022-10-21T08:01:27.233Z,99539.78
2022-10-21T08:03:56.498Z,99538.00
2022-10-21T08:06:26.306Z,99538.72
2022-10-21T08:08:55.752Z,99528.25
2022-10-21T08:11:26.381Z,99533.38
2022-10-21T08:13:55.140Z,99549.91
2022-10-21T08:16:22.969Z,99536.72
2022-10-21T08:18:51.023Z,99542.25
2022-10-21T08:21:19.062Z,99544.75
2022-10-21T08:23:47.085Z,99537.84
2022-10-21T08:26:16.597Z,99546.13
2022-10-21T08:28:46.083Z,99533.78
2022-10-21T08:31:15.647Z,99534.94
2022-10-21T08:33:44.249Z,99505.09
2022-10-21T08:36:14.561Z,99489.16
2022-10-21T08:38:42.229Z,99526.88
2022-10-21T08:41:32.613Z,99540.56
2022-10-21T08:44:06.262Z,99549.03
2022-10-21T08:46:38.679Z,99548.84
2022-10-21T08:49:12.765Z,99557.63
2022-10-21T08:51:45.942Z,99556.56
2022-10-21T08:54:19.776Z,99563.16
2022-10-21T08:56:50.355Z,99561.56
2022-10-21T08:59:21.992Z,99558.84
2022-10-21T09:01:56.287Z,99551.50
2022-10-21T09:04:31.594Z,99548.66
2022-10-21T09:07:12.820Z,99546.34
2022-10-21T09:09:48.281Z,99539.97
2022-10-21T09:12:23.111Z,99544.19
2022-10-21T09:15:11.179Z,99547.72
2022-10-21T09:18:17.185Z,99552.97
2022-10-21T09:20:56.608Z,99554.66
2022-10-21T09:23:38.279Z,99562.38
2022-10-21T09:26:14.727Z,99567.28
2022-10-21T09:28:42.619Z,99560.16
2022-10-21T09:31:18.232Z,99569.66
2022-10-21T09:33:48.065Z,99571.25
2022-10-21T09:36:23.788Z,99567.78
2022-10-21T09:38:57.600Z,99569.47
2022-10-21T09:41:30.621Z,99576.16
2022-10-21T09:43:58.250Z,99574.34
2022-10-21T09:46:27.337Z,99576.03
2022-10-21T09:49:32.437Z,99586.88
2022-10-21T09:51:45.609Z,99583.00
2022-10-21T09:54:18.174Z,99588.84
2022-10-21T09:56:50.409Z,99581.50
2022-10-21T09:59:21.515Z,99592.06
2022-10-21T10:01:51.006Z,99591.97
2022-10-21T10:04:25.092Z,99589.88
2022-10-21T10:06:52.847Z,99593.81
2022-10-21T10:09:28.401Z,99584.56
2022-10-21T10:11:58.098Z,99579.19
2022-10-21T10:14:36.149Z,99585.19
2022-10-21T10:17:39.698Z,99582.66
2022-10-21T10:20:15.055Z,99589.34
2022-10-21T10:22:43.622Z,99588.16
2022-10-21T10:25:21.445Z,99591.53
2022-10-21T10:27:51.636Z,99595.31
2022-10-21T10:30:19.668Z,99596.03
2022-10-21T10:32:50.533Z,99602.00
2022-10-21T10:35:37.182Z,99599.16
2022-10-21T10:38:06.238Z,99597.13
2022-10-21T10:40:39.599Z,99597.84
2022-10-21T10:43:14.162Z,99592.50
2022-10-21T10:45:49.155Z,99589.16
2022-10-21T10:48:25.308Z,99588.09
2022-10-21T10:50:53.061Z,99591.44
2022-10-21T10:53:29.046Z,99586.19
2022-10-21T10:56:03.130Z,99584.28
2022-10-21T10:58:33.604Z,99573.16
2022-10-21T11:01:06.638Z,99570.66
2022-10-21T11:03:42.326Z,99567.00
2022-10-21T11:06:17.193Z,99571.06
2022-10-21T11:08:49.892Z,99556.50
2022-10-21T11:11:25.486Z,99554.97
2022-10-21T11:13:53.927Z,99548.41
2022-10-21T11:16:50.516Z,99534.25
2022-10-21T11:19:35.107Z,99545.19
2022-10-21T11:22:13.909Z,99550.09
2022-10-21T11:25:04.584Z,99546.09
2022-10-21T11:27:46.402Z,99559.25
2022-10-21T11:30:19.765Z,99568.91
2022-10-21T11:33:06.849Z,99567.22
2022-10-21T11:35:42.230Z,99560.78
2022-10-21T11:38:30.340Z,99561.34
2022-10-21T11:41:10.125Z,99575.09
2022-10-21T11:43:47.736Z,99568.25
2022-10-21T11:46:23.812Z,99563.63
2022-10-21T11:49:03.719Z,99573.50
2022-10-21T11:51:42.073Z,99581.00
2022-10-21T11:54:54.401Z,99580.41
2022-10-21T11:57:37.032Z,99582.22
2022-10-21T12:00:12.660Z,99583.63
2022-10-21T12:02:45.422Z,99582.81
2022-10-21T12:05:22.098Z,99570.44
2022-10-21T12:08:13.275Z,99586.47
2022-10-21T12:10:47.323Z,99595.31
2022-10-21T12:13:20.547Z,99600.00
2022-10-21T12:15:51.732Z,99601.88
2022-10-21T12:18:21.571Z,99612.78
2022-10-21T12:20:53.086Z,99609.66
2022-10-21T12:23:25.488Z,99608.94
2022-10-21T12:26:04.842Z,99608.19
2022-10-21T12:28:37.963Z,99612.56
2022-10-21T12:31:22.613Z,99602.03
2022-10-21T12:33:51.132Z,99607.91
2022-10-21T12:36:38.059Z,99616.41
2022-10-21T12:39:12.608Z,99644.53
2022-10-21T12:41:41.478Z,99649.94
2022-10-21T12:44:25.356Z,99658.69
2022-10-21T12:46:56.200Z,99666.34
2022-10-21T12:49:30.546Z,99661.94
2022-10-21T12:52:06.143Z,99674.84
2022-10-21T12:54:43.030Z,99673.75
2022-10-21T12:57:12.859Z,99694.34
2022-10-21T12:59:42.545Z,99696.75
2022-10-21T13:02:21.003Z,99684.94
2022-10-21T13:04:51.618Z,99684.09
2022-10-21T13:07:40.353Z,99668.44
2022-10-21T13:10:26.369Z,99676.81
2022-10-21T13:13:29.869Z,99676.94
2022-10-21T13:15:57.641Z,99681.34
2022-10-21T13:18:57.850Z,99685.97
2022-10-21T13:21:37.936Z,99687.03
2022-10-21T13:24:26.421Z,99674.84
2022-10-21T13:26:57.762Z,99683.25
2022-10-21T13:29:44.819Z,99692.66
2022-10-21T13:32:31.153Z,99694.69
2022-10-21T13:35:11.104Z,99690.50
2022-10-21T13:37:41.488Z,99702.09
2022-10-21T13:40:16.845Z,99699.13
2022-10-21T13:42:49.728Z,99686.97
2022-10-21T13:45:26.361Z,99691.75
2022-10-21T13:48:03.239Z,99695.44
2022-10-21T13:50:33.746Z,99689.81
2022-10-21T13:53:06.386Z,99700.34
2022-10-21T13:55:34.179Z,99697.09
2022-10-21T13:58:03.361Z,99701.75
2022-10-21T14:00:33.011Z,99705.09
2022-10-21T14:03:04.405Z,99675.28
2022-10-21T14:05:35.992Z,99687.88
2022-10-21T14:08:07.096Z,99687.25
2022-10-21T14:10:35.676Z,99681.53
2022-10-21T14:13:05.579Z,99689.94
2022-10-21T14:15:40.618Z,99677.84
2022-10-21T14:18:08.690Z,99684.81
2022-10-21T14:20:39.083Z,99679.28
2022-10-21T14:23:18.808Z,99683.59
2022-10-21T14:25:48.825Z,99689.22
2022-10-21T14:28:18.896Z,99690.78
2022-10-21T14:30:46.742Z,99681.44
2022-10-21T14:33:26.510Z,99686.81
2022-10-21T14:36:09.984Z,99689.47
2022-10-21T14:38:41.461Z,99687.56
2022-10-21T14:41:15.059Z,99677.31
2022-10-21T14:43:46.179Z,99670.00
2022-10-21T14:46:14.538Z,99671.91
2022-10-21T14:48:47.667Z,99669.53
2022-10-21T14:51:21.215Z,99646.75
2022-10-21T14:53:53.518Z,99644.38
2022-10-21T14:56:25.329Z,99643.19
2022-10-21T14:58:58.090Z,99642.94
2022-10-21T15:01:26.543Z,99640.53
2022-10-21T15:03:56.677Z,99628.97
2022-10-21T15:06:27.146Z,99635.06
2022-10-21T15:09:19.974Z,99631.19
2022-10-21T15:11:48.693Z,99625.13
2022-10-21T15:14:31.994Z,99617.59
2022-10-21T15:17:03.687Z,99616.03
2022-10-21T15:19:43.878Z,99620.09
2022-10-21T15:22:28.383Z,99617.13
2022-10-21T15:25:01.641Z,99618.31
2022-10-21T15:27:37.004Z,99620.47
2022-10-21T15:30:15.091Z,99627.16
2022-10-21T15:32:42.901Z,99621.06
2022-10-21T15:35:15.381Z,99634.19
2022-10-21T15:37:43.577Z,99639.31
2022-10-21T15:40:12.240Z,99637.28
2022-10-21T15:42:39.976Z,99646.97
2022-10-21T15:45:15.488Z,99639.78
2022-10-21T15:47:43.393Z,99639.91
2022-10-21T15:50:15.387Z,99647.06
2022-10-21T15:52:43.473Z,99648.38
2022-10-21T15:55:11.390Z,99645.75
2022-10-21T15:57:40.228Z,99652.56
2022-10-21T16:00:18.547Z,99639.44
2022-10-21T16:02:46.951Z,99651.47
2022-10-21T16:05:15.622Z,99655.28
2022-10-21T16:07:43.694Z,99686.69
2022-10-21T16:10:19.717Z,99691.81
2022-10-21T16:12:47.894Z,99695.47
2022-10-21T16:15:18.511Z,99697.06
2022-10-21T16:17:48.576Z,99702.50
2022-10-21T16:20:18.739Z,99701.91
2022-10-21T16:22:46.848Z,99700.88
2022-10-21T16:25:14.873Z,99698.69
2022-10-21T16:27:55.192Z,99693.94
2022-10-21T16:30:27.664Z,99700.72
2022-10-21T16:32:57.122Z,99716.09
2022-10-21T16:35:25.573Z,99717.25
2022-10-21T16:37:53.863Z,99713.81
2022-10-21T16:40:24.698Z,99713.81
2022-10-21T16:42:53.080Z,99721.53
2022-10-21T16:45:23.057Z,99729.53
2022-10-21T16:47:56.646Z,99735.13
2022-10-21T16:50:30.573Z,99729.66
2022-10-21T16:52:58.680Z,99745.94
2022-10-21T16:55:26.608Z,99741.41
2022-10-21T16:57:54.383Z,99737.50
2022-10-21T17:00:22.538Z,99753.75
2022-10-21T17:02:52.559Z,99758.44
2022-10-21T17:05:20.630Z,99765.03
2022-10-21T17:07:48.306Z,99763.69
2022-10-21T17:10:16.072Z,99758.69
2022-10-21T17:12:44.143Z,99756.16
2022-10-21T17:15:15.219Z,99755.44
2022-10-21T17:17:42.928Z,99750.75
2022-10-21T17:20:12.510Z,99739.41
2022-10-21T17:22:40.190Z,99752.53
2022-10-21T17:25:08.517Z,99744.03
2022-10-21T17:27:36.323Z,99752.16
2022-10-21T17:30:04.476Z,99758.69
2022-10-21T17:32:32.170Z,99761.41
2022-10-21T17:34:59.984Z,99744.00
2022-10-21T17:37:29.126Z,99757.31
2022-10-21T17:39:56.884Z,99764.78
2022-10-21T17:42:24.643Z,99766.66
2022-10-21T17:44:52.665Z,99762.25
2022-10-21T17:47:20.370Z,99764.13
2022-10-21T17:49:48.111Z,99758.41
2022-10-21T17:52:15.819Z,99755.28
2022-10-21T17:54:45.011Z,99758.81
2022-10-21T17:57:12.671Z,99758.13
2022-10-21T17:59:40.582Z,99760.59
2022-10-21T18:02:09.397Z,99760.59
2022-10-21T18:04:38.247Z,99765.66
2022-10-21T18:07:09.324Z,99750.13
2022-10-21T18:09:38.484Z,99753.59
2022-10-21T18:12:10.071Z,99759.16
2022-10-21T18:14:37.899Z,99767.84
2022-10-21T18:17:05.715Z,99768.41
2022-10-21T18:19:33.868Z,99776.06
2022-10-21T18:22:01.619Z,99760.47
2022-10-21T18:24:29.815Z,99755.75
2022-10-21T18:26:57.833Z,99755.16
2022-10-21T18:29:27.299Z,99754.00
2022-10-21T18:31:56.320Z,99736.69
2022-10-21T18:34:24.165Z,99744.06
2022-10-21T18:39:20.323Z,99729.81
2022-10-21T18:41:48.469Z,99738.50
2022-10-21T18:44:16.368Z,99732.22
2022-10-21T18:46:46.756Z,99726.75
2022-10-21T18:49:18.332Z,99711.66
2022-10-21T18:51:46.928Z,99704.66
2022-10-21T18:54:15.671Z,99713.03
2022-10-21T18:56:44.769Z,99730.31
2022-10-21T18:59:12.707Z,99725.28
2022-10-21T19:01:41.036Z,99726.75
2022-10-21T19:04:10.587Z,99725.81
2022-10-21T19:06:41.400Z,99737.00
2022-10-21T19:09:13.789Z,99738.06
2022-10-21T19:11:42.145Z,99745.69
2022-10-21T19:14:13.877Z,99748.22
2022-10-21T19:16:42.874Z,99754.63
2022-10-21T19:19:12.619Z,99751.78
2022-10-21T19:21:40.403Z,99756.41
2022-10-21T19:24:09.271Z,99753.78
2022-10-21T19:26:40.269Z,99752.00
2022-10-21T19:29:09.719Z,99759.00
2022-10-21T19:31:38.529Z,99759.94
2022-10-21T19:34:07.372Z,99765.31
2022-10-21T19:36:36.467Z,99750.31
2022-10-21T19:39:04.229Z,99748.97
2022-10-21T19:41:32.196Z,99745.84
2022-10-21T19:44:00.047Z,99753.78
2022-10-21T19:46:29.626Z,99767.63
2022-10-21T19:48:58.132Z,99764.47
2022-10-21T19:51:26.751Z,99773.38
2022-10-21T19:53:56.804Z,99772.41
2022-10-21T19:56:29.588Z,99774.00
2022-10-21T19:59:02.286Z,99768.88
2022-10-21T20:01:30.186Z,99755.16
2022-10-21T20:03:58.135Z,99756.22
2022-10-21T20:06:28.170Z,99748.75
2022-10-21T20:08:58.602Z,99755.16
2022-10-21T20:11:28.249Z,99754.22
2022-10-21T20:13:56.498Z,99766.78
2022-10-21T20:16:26.605Z,99762.16
2022-10-21T20:18:55.183Z,99753.28
2022-10-21T20:21:23.970Z,99746.59
2022-10-21T20:23:52.630Z,99747.81
2022-10-21T20:26:22.569Z,99749.59
2022-10-21T20:28:50.838Z,99752.53
2022-10-21T20:31:19.491Z,99756.28
2022-10-21T20:33:48.815Z,99764.31
2022-10-21T20:36:19.043Z,99759.97
2022-10-21T20:38:47.602Z,99760.50
2022-10-21T20:41:21.494Z,99764.25
2022-10-21T20:43:51.850Z,99768.25
2022-10-21T20:46:21.187Z,99768.25
2022-10-21T20:48:50.514Z,99768.25
2022-10-21T20:51:20.537Z,99775.25
2022-10-21T20:53:50.327Z,99773.38
2022-10-21T20:56:18.114Z,99772.41
2022-10-21T20:58:46.119Z,99771.47
2022-10-21T21:01:18.019Z,99762.38
2022-10-21T21:03:46.322Z,99749.06
2022-10-21T21:06:14.589Z,99742.69
2022-10-21T21:08:49.032Z,99730.44
2022-10-21T21:11:21.627Z,99724.03
2022-10-21T21:13:49.810Z,99729.06
2022-10-21T21:16:20.803Z,99740.38
2022-10-21T21:18:53.560Z,99756.84
2022-10-21T21:21:22.893Z,99769.09
2022-10-21T21:23:51.330Z,99778.72
2022-10-21T21:26:21.560Z,99789.06
2022-10-21T21:28:50.661Z,99780.50
2022-10-21T21:31:20.902Z,99778.72
2022-10-21T21:33:48.926Z,99792.53
2022-10-21T21:36:18.870Z,99796.28
2022-10-21T21:38:46.588Z,99797.25
2022-10-21T21:41:16.451Z,99806.16
2022-10-21T21:43:45.893Z,99805.53
2022-10-21T21:46:13.883Z,99809.91
2022-10-21T21:48:46.187Z,99819.66
2022-10-21T21:51:15.661Z,99822.16
2022-10-21T21:53:43.333Z,99817.06
2022-10-21T21:56:11.508Z,99811.59
2022-10-21T21:58:39.239Z,99815.78
2022-10-21T22:01:11.379Z,99810.53
2022-10-21T22:03:39.447Z,99816.63
2022-10-21T22:06:10.193Z,99807.22
2022-10-21T22:08:40.399Z,99797.66
2022-10-21T22:11:09.619Z,99786.47
2022-10-21T22:13:37.821Z,99778.63
2022-10-21T22:16:07.440Z,99782.06
2022-10-21T22:18:35.715Z,99792.53
2022-10-21T22:21:04.867Z,99802.19
2022-10-21T22:23:34.206Z,99795.88
2022-10-21T22:26:01.877Z,99785.50
2022-10-21T22:28:29.567Z,99784.47
2022-10-21T22:30:59.359Z,99781.03
2022-10-21T22:33:28.031Z,99782.88
2022-10-21T22:35:56.291Z,99783.00
2022-10-21T22:38:24.856Z,99769.94
2022-10-21T22:40:58.601Z,99780.59
2022-10-21T22:43:27.243Z,99781.94
2022-10-21T22:46:05.121Z,99790.03
2022-10-21T22:48:42.902Z,99789.09
2022-10-21T22:51:10.599Z,99783.72
2022-10-21T22:53:38.264Z,99780.25
2022-10-21T22:56:07.900Z,99773.25
2022-10-21T22:58:35.602Z,99775.78
2022-10-21T23:01:08.296Z,99777.56
2022-10-21T23:03:36.558Z,99777.78
2022-10-21T23:06:04.298Z,99767.31
2022-10-21T23:08:32.026Z,99759.44
2022-10-21T23:10:59.729Z,99763.00
2022-10-21T23:13:29.222Z,99762.28
2022-10-21T23:15:56.862Z,99759.75
2022-10-21T23:18:24.486Z,99773.56
2022-10-21T23:20:52.171Z,99777.16
2022-10-21T23:23:19.822Z,99770.94
2022-10-21T23:25:47.471Z,99798.41
2022-10-21T23:28:15.243Z,99812.41
2022-10-21T23:30:44.298Z,99829.78
2022-10-21T23:33:11.977Z,99824.66
2022-10-21T23:35:39.615Z,99823.63
2022-10-21T23:38:07.216Z,99829.69
2022-10-21T23:40:35.637Z,99829.03
2022-10-21T23:43:03.254Z,99826.34
2022-10-21T23:45:31.043Z,99838.56
2022-10-21T23:48:00.401Z,99844.56
2022-10-21T23:50:28.973Z,99841.81
2022-10-21T23:52:56.611Z,99829.59
2022-10-21T23:55:24.397Z,99817.97
2022-10-21T23:57:52.188Z,99823.28
